sensor_id;sensor_type;location;lat;lon;timestamp;temperature;humidity
14924;DHT22;7554;43.600;1.480;2023-05-23T00:01:34;17.50;1.00
14924;DHT22;7554;43.600;1.480;2023-05-23T00:04:02;17.50;1.00
14924;DHT22;7554;43.600;1.480;2023-05-23T00:06:29;17.50;1.00
14924;DHT22;7554;43.600;1.480;2023-05-23T00:08:57;17.50;1.00
14924;DHT22;7554;43.600;1.480;2023-05-23T00:11:25;17.50;1.00
14924;DHT22;7554;43.600;1.480;2023-05-23T00:13:54;17.40;1.00
14924;DHT22;7554;43.600;1.480;2023-05-23T00:16:23;17.50;1.00
14924;DHT22;7554;43.600;1.480;2023-05-23T00:18:51;17.40;1.00
14924;DHT22;7554;43.600;1.480;2023-05-23T00:21:19;17.40;1.00
14924;DHT22;7554;43.600;1.480;2023-05-23T00:23:46;17.40;1.00
14924;DHT22;7554;43.600;1.480;2023-05-23T00:26:15;17.40;1.00
14924;DHT22;7554;43.600;1.480;2023-05-23T00:28:42;17.40;1.00
14924;DHT22;7554;43.600;1.480;2023-05-23T00:31:09;17.40;1.00
14924;DHT22;7554;43.600;1.480;2023-05-23T00:33:38;17.40;1.00
14924;DHT22;7554;43.600;1.480;2023-05-23T00:36:06;17.40;1.00
14924;DHT22;7554;43.600;1.480;2023-05-23T00:38:33;17.30;1.00
14924;DHT22;7554;43.600;1.480;2023-05-23T00:41:01;17.30;1.00
14924;DHT22;7554;43.600;1.480;2023-05-23T00:43:28;17.30;1.00
14924;DHT22;7554;43.600;1.480;2023-05-23T00:45:56;17.30;1.00
14924;DHT22;7554;43.600;1.480;2023-05-23T00:48:24;17.30;1.00
14924;DHT22;7554;43.600;1.480;2023-05-23T00:50:54;17.30;1.00
14924;DHT22;7554;43.600;1.480;2023-05-23T00:53:22;17.30;1.00
14924;DHT22;7554;43.600;1.480;2023-05-23T00:55:50;17.20;1.00
14924;DHT22;7554;43.600;1.480;2023-05-23T00:58:17;17.20;1.00
14924;DHT22;7554;43.600;1.480;2023-05-23T01:00:45;17.20;1.00
14924;DHT22;7554;43.600;1.480;2023-05-23T01:03:15;17.10;1.00
14924;DHT22;7554;43.600;1.480;2023-05-23T01:05:43;17.10;1.00
14924;DHT22;7554;43.600;1.480;2023-05-23T01:08:12;17.00;1.00
14924;DHT22;7554;43.600;1.480;2023-05-23T01:10:40;16.90;1.00
14924;DHT22;7554;43.600;1.480;2023-05-23T01:13:16;16.90;1.00
14924;DHT22;7554;43.600;1.480;2023-05-23T01:15:49;16.90;1.00
14924;DHT22;7554;43.600;1.480;2023-05-23T01:18:23;16.80;1.00
14924;DHT22;7554;43.600;1.480;2023-05-23T01:20:54;16.70;1.00
14924;DHT22;7554;43.600;1.480;2023-05-23T01:26:31;16.70;1.00
14924;DHT22;7554;43.600;1.480;2023-05-23T01:29:08;16.60;1.00
14924;DHT22;7554;43.600;1.480;2023-05-23T01:31:41;16.60;1.00
14924;DHT22;7554;43.600;1.480;2023-05-23T01:34:09;16.50;1.00
14924;DHT22;7554;43.600;1.480;2023-05-23T01:36:40;16.50;1.00
14924;DHT22;7554;43.600;1.480;2023-05-23T01:39:08;16.40;1.00
14924;DHT22;7554;43.600;1.480;2023-05-23T01:41:36;16.40;1.00
14924;DHT22;7554;43.600;1.480;2023-05-23T01:44:05;16.40;1.00
14924;DHT22;7554;43.600;1.480;2023-05-23T01:46:34;16.50;1.00
14924;DHT22;7554;43.600;1.480;2023-05-23T01:49:05;16.40;1.00
14924;DHT22;7554;43.600;1.480;2023-05-23T01:51:34;16.40;1.00
14924;DHT22;7554;43.600;1.480;2023-05-23T01:54:02;16.40;1.00
14924;DHT22;7554;43.600;1.480;2023-05-23T01:56:30;16.40;1.00
14924;DHT22;7554;43.600;1.480;2023-05-23T01:58:57;16.40;1.00
14924;DHT22;7554;43.600;1.480;2023-05-23T02:01:26;16.40;1.00
14924;DHT22;7554;43.600;1.480;2023-05-23T02:03:53;16.30;1.00
14924;DHT22;7554;43.600;1.480;2023-05-23T02:06:21;16.30;1.00
14924;DHT22;7554;43.600;1.480;2023-05-23T02:08:48;16.30;1.00
14924;DHT22;7554;43.600;1.480;2023-05-23T02:11:16;16.20;1.00
14924;DHT22;7554;43.600;1.480;2023-05-23T02:13:43;16.20;1.00
14924;DHT22;7554;43.600;1.480;2023-05-23T02:16:10;16.20;1.00
14924;DHT22;7554;43.600;1.480;2023-05-23T02:18:40;16.20;1.00
14924;DHT22;7554;43.600;1.480;2023-05-23T02:21:07;16.10;1.00
14924;DHT22;7554;43.600;1.480;2023-05-23T02:23:34;16.10;1.00
14924;DHT22;7554;43.600;1.480;2023-05-23T02:26:02;16.10;1.00
14924;DHT22;7554;43.600;1.480;2023-05-23T02:28:29;16.10;1.00
14924;DHT22;7554;43.600;1.480;2023-05-23T02:30:56;16.00;1.00
14924;DHT22;7554;43.600;1.480;2023-05-23T02:33:24;16.00;1.00
14924;DHT22;7554;43.600;1.480;2023-05-23T02:35:53;16.00;1.00
14924;DHT22;7554;43.600;1.480;2023-05-23T02:38:20;15.90;1.00
14924;DHT22;7554;43.600;1.480;2023-05-23T02:40:47;15.90;1.00
14924;DHT22;7554;43.600;1.480;2023-05-23T02:43:16;15.90;1.00
14924;DHT22;7554;43.600;1.480;2023-05-23T02:45:43;15.90;1.00
14924;DHT22;7554;43.600;1.480;2023-05-23T02:48:11;15.80;1.00
14924;DHT22;7554;43.600;1.480;2023-05-23T02:50:38;15.80;1.00
14924;DHT22;7554;43.600;1.480;2023-05-23T02:53:07;15.80;1.00
14924;DHT22;7554;43.600;1.480;2023-05-23T02:55:34;15.80;1.00
14924;DHT22;7554;43.600;1.480;2023-05-23T02:58:03;15.70;1.00
14924;DHT22;7554;43.600;1.480;2023-05-23T03:00:30;15.70;1.00
14924;DHT22;7554;43.600;1.480;2023-05-23T03:02:58;15.60;1.00
14924;DHT22;7554;43.600;1.480;2023-05-23T03:05:26;15.60;1.00
14924;DHT22;7554;43.600;1.480;2023-05-23T03:07:53;15.60;1.00
14924;DHT22;7554;43.600;1.480;2023-05-23T03:10:22;15.50;1.00
14924;DHT22;7554;43.600;1.480;2023-05-23T03:12:49;15.50;1.00
14924;DHT22;7554;43.600;1.480;2023-05-23T03:15:17;15.50;1.00
14924;DHT22;7554;43.600;1.480;2023-05-23T03:17:44;15.40;1.00
14924;DHT22;7554;43.600;1.480;2023-05-23T03:20:12;15.40;1.00
14924;DHT22;7554;43.600;1.480;2023-05-23T03:22:39;15.40;1.00
14924;DHT22;7554;43.600;1.480;2023-05-23T03:25:10;15.40;1.00
14924;DHT22;7554;43.600;1.480;2023-05-23T03:27:39;15.40;1.00
14924;DHT22;7554;43.600;1.480;2023-05-23T03:30:07;15.30;1.00
14924;DHT22;7554;43.600;1.480;2023-05-23T03:32:34;15.30;1.00
14924;DHT22;7554;43.600;1.480;2023-05-23T03:35:02;15.30;1.00
14924;DHT22;7554;43.600;1.480;2023-05-23T03:37:29;15.30;1.00
14924;DHT22;7554;43.600;1.480;2023-05-23T03:39:57;15.20;1.00
14924;DHT22;7554;43.600;1.480;2023-05-23T03:42:24;15.20;1.00
14924;DHT22;7554;43.600;1.480;2023-05-23T03:44:53;15.10;1.00
14924;DHT22;7554;43.600;1.480;2023-05-23T03:47:20;15.10;1.00
14924;DHT22;7554;43.600;1.480;2023-05-23T03:49:48;15.10;1.00
14924;DHT22;7554;43.600;1.480;2023-05-23T03:52:16;15.10;1.00
14924;DHT22;7554;43.600;1.480;2023-05-23T03:54:43;15.00;1.00
14924;DHT22;7554;43.600;1.480;2023-05-23T03:57:10;15.00;1.00
14924;DHT22;7554;43.600;1.480;2023-05-23T03:59:38;15.00;1.00
14924;DHT22;7554;43.600;1.480;2023-05-23T04:02:07;15.00;1.00
14924;DHT22;7554;43.600;1.480;2023-05-23T04:04:34;15.00;1.00
14924;DHT22;7554;43.600;1.480;2023-05-23T04:07:01;15.00;1.00
14924;DHT22;7554;43.600;1.480;2023-05-23T04:09:30;15.00;1.00
14924;DHT22;7554;43.600;1.480;2023-05-23T04:11:57;15.00;1.00
14924;DHT22;7554;43.600;1.480;2023-05-23T04:14:25;14.90;1.00
14924;DHT22;7554;43.600;1.480;2023-05-23T04:16:52;15.00;1.00
14924;DHT22;7554;43.600;1.480;2023-05-23T04:19:21;15.00;1.00
14924;DHT22;7554;43.600;1.480;2023-05-23T04:21:49;15.00;1.00
14924;DHT22;7554;43.600;1.480;2023-05-23T04:24:16;14.90;1.00
14924;DHT22;7554;43.600;1.480;2023-05-23T04:26:43;14.90;1.00
14924;DHT22;7554;43.600;1.480;2023-05-23T04:29:11;15.00;1.00
14924;DHT22;7554;43.600;1.480;2023-05-23T04:31:38;15.00;1.00
14924;DHT22;7554;43.600;1.480;2023-05-23T04:34:06;15.00;1.00
14924;DHT22;7554;43.600;1.480;2023-05-23T04:36:35;15.10;1.00
14924;DHT22;7554;43.600;1.480;2023-05-23T04:39:03;15.20;1.00
14924;DHT22;7554;43.600;1.480;2023-05-23T04:41:31;15.30;1.00
14924;DHT22;7554;43.600;1.480;2023-05-23T04:43:58;15.30;1.00
14924;DHT22;7554;43.600;1.480;2023-05-23T04:46:25;15.40;1.00
14924;DHT22;7554;43.600;1.480;2023-05-23T04:48:52;15.60;1.00
14924;DHT22;7554;43.600;1.480;2023-05-23T04:51:21;15.80;1.00
14924;DHT22;7554;43.600;1.480;2023-05-23T04:53:50;16.10;1.00
14924;DHT22;7554;43.600;1.480;2023-05-23T04:56:18;16.70;1.00
14924;DHT22;7554;43.600;1.480;2023-05-23T04:58:47;17.40;1.00
14924;DHT22;7554;43.600;1.480;2023-05-23T05:01:14;18.00;1.00
14924;DHT22;7554;43.600;1.480;2023-05-23T05:03:41;18.60;1.00
14924;DHT22;7554;43.600;1.480;2023-05-23T05:06:09;19.00;1.00
14924;DHT22;7554;43.600;1.480;2023-05-23T05:08:36;19.50;1.00
14924;DHT22;7554;43.600;1.480;2023-05-23T05:11:07;19.70;1.00
14924;DHT22;7554;43.600;1.480;2023-05-23T05:13:35;20.30;1.00
14924;DHT22;7554;43.600;1.480;2023-05-23T05:16:02;20.60;1.00
14924;DHT22;7554;43.600;1.480;2023-05-23T05:18:29;21.10;1.00
14924;DHT22;7554;43.600;1.480;2023-05-23T05:20:57;21.30;1.00
14924;DHT22;7554;43.600;1.480;2023-05-23T05:23:25;20.90;1.00
14924;DHT22;7554;43.600;1.480;2023-05-23T05:25:53;19.80;1.00
14924;DHT22;7554;43.600;1.480;2023-05-23T05:28:23;18.90;1.00
14924;DHT22;7554;43.600;1.480;2023-05-23T05:30:51;18.30;1.00
14924;DHT22;7554;43.600;1.480;2023-05-23T05:33:19;17.90;1.00
14924;DHT22;7554;43.600;1.480;2023-05-23T05:35:48;17.80;1.00
14924;DHT22;7554;43.600;1.480;2023-05-23T05:38:16;17.70;1.00
14924;DHT22;7554;43.600;1.480;2023-05-23T05:40:43;17.60;1.00
14924;DHT22;7554;43.600;1.480;2023-05-23T05:43:10;17.60;1.00
14924;DHT22;7554;43.600;1.480;2023-05-23T05:45:39;17.40;1.00
14924;DHT22;7554;43.600;1.480;2023-05-23T05:48:06;17.40;1.00
14924;DHT22;7554;43.600;1.480;2023-05-23T05:50:34;17.40;1.00
14924;DHT22;7554;43.600;1.480;2023-05-23T05:53:01;17.40;1.00
14924;DHT22;7554;43.600;1.480;2023-05-23T05:55:29;17.40;1.00
14924;DHT22;7554;43.600;1.480;2023-05-23T05:57:56;17.60;1.00
14924;DHT22;7554;43.600;1.480;2023-05-23T06:00:24;17.60;1.00
14924;DHT22;7554;43.600;1.480;2023-05-23T06:02:52;17.50;1.00
14924;DHT22;7554;43.600;1.480;2023-05-23T06:05:22;17.50;1.00
14924;DHT22;7554;43.600;1.480;2023-05-23T06:07:49;17.50;1.00
14924;DHT22;7554;43.600;1.480;2023-05-23T06:10:17;17.40;1.00
14924;DHT22;7554;43.600;1.480;2023-05-23T06:12:44;17.30;1.00
14924;DHT22;7554;43.600;1.480;2023-05-23T06:15:11;17.10;1.00
14924;DHT22;7554;43.600;1.480;2023-05-23T06:17:39;17.20;1.00
14924;DHT22;7554;43.600;1.480;2023-05-23T06:20:09;17.30;1.00
14924;DHT22;7554;43.600;1.480;2023-05-23T06:22:37;17.30;1.00
14924;DHT22;7554;43.600;1.480;2023-05-23T06:25:05;17.20;1.00
14924;DHT22;7554;43.600;1.480;2023-05-23T06:27:32;17.10;1.00
14924;DHT22;7554;43.600;1.480;2023-05-23T06:30:00;17.20;1.00
14924;DHT22;7554;43.600;1.480;2023-05-23T06:32:27;17.20;1.00
14924;DHT22;7554;43.600;1.480;2023-05-23T06:34:54;17.30;1.00
14924;DHT22;7554;43.600;1.480;2023-05-23T06:37:23;17.40;1.00
14924;DHT22;7554;43.600;1.480;2023-05-23T06:39:51;17.50;1.00
14924;DHT22;7554;43.600;1.480;2023-05-23T06:42:18;17.50;1.00
14924;DHT22;7554;43.600;1.480;2023-05-23T06:44:45;17.50;1.00
14924;DHT22;7554;43.600;1.480;2023-05-23T06:47:13;17.60;1.00
14924;DHT22;7554;43.600;1.480;2023-05-23T06:49:40;17.70;1.00
14924;DHT22;7554;43.600;1.480;2023-05-23T06:52:08;17.80;1.00
14924;DHT22;7554;43.600;1.480;2023-05-23T06:54:36;17.90;1.00
14924;DHT22;7554;43.600;1.480;2023-05-23T06:57:04;17.90;1.00
14924;DHT22;7554;43.600;1.480;2023-05-23T06:59:31;17.90;1.00
14924;DHT22;7554;43.600;1.480;2023-05-23T07:01:59;18.00;1.00
14924;DHT22;7554;43.600;1.480;2023-05-23T07:04:26;18.10;1.00
14924;DHT22;7554;43.600;1.480;2023-05-23T07:06:53;18.10;1.00
14924;DHT22;7554;43.600;1.480;2023-05-23T07:09:21;18.10;1.00
14924;DHT22;7554;43.600;1.480;2023-05-23T07:11:49;18.20;1.00
14924;DHT22;7554;43.600;1.480;2023-05-23T07:14:17;18.30;1.00
14924;DHT22;7554;43.600;1.480;2023-05-23T07:16:45;18.30;1.00
14924;DHT22;7554;43.600;1.480;2023-05-23T07:19:12;18.50;1.00
14924;DHT22;7554;43.600;1.480;2023-05-23T07:21:39;18.60;1.00
14924;DHT22;7554;43.600;1.480;2023-05-23T07:24:07;18.70;1.00
14924;DHT22;7554;43.600;1.480;2023-05-23T07:26:34;18.90;1.00
14924;DHT22;7554;43.600;1.480;2023-05-23T07:29:03;18.80;1.00
14924;DHT22;7554;43.600;1.480;2023-05-23T07:31:30;18.90;1.00
14924;DHT22;7554;43.600;1.480;2023-05-23T07:33:59;19.00;1.00
14924;DHT22;7554;43.600;1.480;2023-05-23T07:36:26;19.10;1.00
14924;DHT22;7554;43.600;1.480;2023-05-23T07:38:54;19.10;1.00
14924;DHT22;7554;43.600;1.480;2023-05-23T07:41:21;19.10;1.00
14924;DHT22;7554;43.600;1.480;2023-05-23T07:43:48;19.10;1.00
14924;DHT22;7554;43.600;1.480;2023-05-23T07:46:17;19.20;1.00
14924;DHT22;7554;43.600;1.480;2023-05-23T07:48:44;19.20;1.00
14924;DHT22;7554;43.600;1.480;2023-05-23T07:51:12;19.40;1.00
14924;DHT22;7554;43.600;1.480;2023-05-23T07:53:39;19.40;1.00
14924;DHT22;7554;43.600;1.480;2023-05-23T07:56:06;19.50;1.00
14924;DHT22;7554;43.600;1.480;2023-05-23T07:58:34;19.80;1.00
14924;DHT22;7554;43.600;1.480;2023-05-23T08:01:01;20.00;1.00
14924;DHT22;7554;43.600;1.480;2023-05-23T08:03:30;20.10;1.00
14924;DHT22;7554;43.600;1.480;2023-05-23T08:05:57;20.20;1.00
14924;DHT22;7554;43.600;1.480;2023-05-23T08:08:24;20.00;1.00
14924;DHT22;7554;43.600;1.480;2023-05-23T08:10:52;20.00;1.00
14924;DHT22;7554;43.600;1.480;2023-05-23T08:13:19;20.20;1.00
14924;DHT22;7554;43.600;1.480;2023-05-23T08:15:46;20.40;1.00
14924;DHT22;7554;43.600;1.480;2023-05-23T08:18:14;20.50;1.00
14924;DHT22;7554;43.600;1.480;2023-05-23T08:20:44;21.20;1.00
14924;DHT22;7554;43.600;1.480;2023-05-23T08:23:11;21.50;1.00
14924;DHT22;7554;43.600;1.480;2023-05-23T08:25:40;21.30;1.00
14924;DHT22;7554;43.600;1.480;2023-05-23T08:28:07;21.50;1.00
14924;DHT22;7554;43.600;1.480;2023-05-23T08:30:35;21.50;1.00
14924;DHT22;7554;43.600;1.480;2023-05-23T08:33:02;21.50;1.00
14924;DHT22;7554;43.600;1.480;2023-05-23T08:35:31;21.50;1.00
14924;DHT22;7554;43.600;1.480;2023-05-23T08:38:04;21.30;1.00
14924;DHT22;7554;43.600;1.480;2023-05-23T08:40:33;21.40;1.00
14924;DHT22;7554;43.600;1.480;2023-05-23T08:43:01;22.10;1.00
14924;DHT22;7554;43.600;1.480;2023-05-23T08:45:29;22.90;1.00
14924;DHT22;7554;43.600;1.480;2023-05-23T08:47:59;24.60;1.00
14924;DHT22;7554;43.600;1.480;2023-05-23T08:50:29;26.60;1.00
14924;DHT22;7554;43.600;1.480;2023-05-23T08:52:57;26.30;1.00
14924;DHT22;7554;43.600;1.480;2023-05-23T08:55:27;28.30;1.00
14924;DHT22;7554;43.600;1.480;2023-05-23T08:57:56;26.40;1.00
14924;DHT22;7554;43.600;1.480;2023-05-23T09:00:24;24.70;1.00
14924;DHT22;7554;43.600;1.480;2023-05-23T09:02:52;27.40;1.00
14924;DHT22;7554;43.600;1.480;2023-05-23T09:05:20;30.70;1.00
14924;DHT22;7554;43.600;1.480;2023-05-23T09:07:48;28.70;1.00
14924;DHT22;7554;43.600;1.480;2023-05-23T09:10:16;27.80;1.00
14924;DHT22;7554;43.600;1.480;2023-05-23T09:12:48;27.30;1.00
14924;DHT22;7554;43.600;1.480;2023-05-23T09:15:15;26.90;1.00
14924;DHT22;7554;43.600;1.480;2023-05-23T09:17:43;26.90;1.00
14924;DHT22;7554;43.600;1.480;2023-05-23T09:20:13;29.00;1.00
14924;DHT22;7554;43.600;1.480;2023-05-23T09:22:42;27.30;1.00
14924;DHT22;7554;43.600;1.480;2023-05-23T09:25:12;26.50;1.00
14924;DHT22;7554;43.600;1.480;2023-05-23T09:27:39;26.00;1.00
14924;DHT22;7554;43.600;1.480;2023-05-23T09:30:09;25.70;1.00
14924;DHT22;7554;43.600;1.480;2023-05-23T09:32:37;25.60;1.00
14924;DHT22;7554;43.600;1.480;2023-05-23T09:35:05;25.50;1.00
14924;DHT22;7554;43.600;1.480;2023-05-23T09:37:39;24.80;1.00
14924;DHT22;7554;43.600;1.480;2023-05-23T09:40:10;24.30;1.00
14924;DHT22;7554;43.600;1.480;2023-05-23T09:42:42;24.20;1.00
14924;DHT22;7554;43.600;1.480;2023-05-23T09:45:11;24.60;1.00
14924;DHT22;7554;43.600;1.480;2023-05-23T09:47:39;26.70;1.00
14924;DHT22;7554;43.600;1.480;2023-05-23T09:50:14;27.10;1.00
14924;DHT22;7554;43.600;1.480;2023-05-23T09:52:42;26.70;1.00
14924;DHT22;7554;43.600;1.480;2023-05-23T09:55:09;26.80;1.00
14924;DHT22;7554;43.600;1.480;2023-05-23T09:57:39;26.60;1.00
14924;DHT22;7554;43.600;1.480;2023-05-23T10:00:08;26.50;1.00
14924;DHT22;7554;43.600;1.480;2023-05-23T10:03:03;26.20;1.00
14924;DHT22;7554;43.600;1.480;2023-05-23T10:05:35;25.80;1.00
14924;DHT22;7554;43.600;1.480;2023-05-23T10:08:07;26.30;1.00
14924;DHT22;7554;43.600;1.480;2023-05-23T10:13:51;26.40;1.00
14924;DHT22;7554;43.600;1.480;2023-05-23T10:16:22;26.30;1.00
14924;DHT22;7554;43.600;1.480;2023-05-23T10:18:57;26.50;1.00
14924;DHT22;7554;43.600;1.480;2023-05-23T10:21:29;26.40;1.00
14924;DHT22;7554;43.600;1.480;2023-05-23T10:23:59;26.30;1.00
14924;DHT22;7554;43.600;1.480;2023-05-23T10:26:27;26.70;1.00
14924;DHT22;7554;43.600;1.480;2023-05-23T10:28:54;26.80;1.00
14924;DHT22;7554;43.600;1.480;2023-05-23T10:31:23;26.60;1.00
14924;DHT22;7554;43.600;1.480;2023-05-23T10:33:55;26.00;1.00
14924;DHT22;7554;43.600;1.480;2023-05-23T10:36:28;25.50;1.00
14924;DHT22;7554;43.600;1.480;2023-05-23T10:39:01;25.40;1.00
14924;DHT22;7554;43.600;1.480;2023-05-23T10:41:35;25.10;1.00
14924;DHT22;7554;43.600;1.480;2023-05-23T10:44:12;25.50;1.00
14924;DHT22;7554;43.600;1.480;2023-05-23T10:46:52;25.10;1.00
14924;DHT22;7554;43.600;1.480;2023-05-23T10:49:22;25.60;1.00
14924;DHT22;7554;43.600;1.480;2023-05-23T10:52:03;26.00;1.00
14924;DHT22;7554;43.600;1.480;2023-05-23T10:54:34;26.60;1.00
14924;DHT22;7554;43.600;1.480;2023-05-23T10:57:03;26.80;1.00
14924;DHT22;7554;43.600;1.480;2023-05-23T10:59:31;26.70;1.00
14924;DHT22;7554;43.600;1.480;2023-05-23T11:02:00;26.30;1.00
14924;DHT22;7554;43.600;1.480;2023-05-23T11:04:30;26.60;1.00
14924;DHT22;7554;43.600;1.480;2023-05-23T11:06:57;26.10;1.00
14924;DHT22;7554;43.600;1.480;2023-05-23T11:09:25;26.10;1.00
14924;DHT22;7554;43.600;1.480;2023-05-23T11:11:54;25.70;1.00
14924;DHT22;7554;43.600;1.480;2023-05-23T11:17:29;25.60;1.00
14924;DHT22;7554;43.600;1.480;2023-05-23T11:20:02;25.00;1.00
14924;DHT22;7554;43.600;1.480;2023-05-23T11:22:31;24.70;1.00
14924;DHT22;7554;43.600;1.480;2023-05-23T11:25:00;24.90;1.00
14924;DHT22;7554;43.600;1.480;2023-05-23T11:27:29;25.20;1.00
14924;DHT22;7554;43.600;1.480;2023-05-23T11:30:03;25.30;1.00
14924;DHT22;7554;43.600;1.480;2023-05-23T11:32:30;25.50;1.00
14924;DHT22;7554;43.600;1.480;2023-05-23T11:35:03;25.70;1.00
14924;DHT22;7554;43.600;1.480;2023-05-23T11:37:31;25.90;1.00
14924;DHT22;7554;43.600;1.480;2023-05-23T11:39:59;26.00;1.00
14924;DHT22;7554;43.600;1.480;2023-05-23T11:42:46;26.30;1.00
14924;DHT22;7554;43.600;1.480;2023-05-23T11:45:14;26.50;1.00
14924;DHT22;7554;43.600;1.480;2023-05-23T11:47:41;26.50;1.00
14924;DHT22;7554;43.600;1.480;2023-05-23T11:50:10;25.90;1.00
14924;DHT22;7554;43.600;1.480;2023-05-23T11:52:37;25.30;1.00
14924;DHT22;7554;43.600;1.480;2023-05-23T11:55:06;24.90;1.00
14924;DHT22;7554;43.600;1.480;2023-05-23T11:57:37;25.00;1.00
14924;DHT22;7554;43.600;1.480;2023-05-23T12:00:08;25.30;1.00
14924;DHT22;7554;43.600;1.480;2023-05-23T12:02:38;25.70;1.00
14924;DHT22;7554;43.600;1.480;2023-05-23T12:05:09;26.20;1.00
14924;DHT22;7554;43.600;1.480;2023-05-23T12:07:39;26.00;1.00
14924;DHT22;7554;43.600;1.480;2023-05-23T12:10:08;25.70;1.00
14924;DHT22;7554;43.600;1.480;2023-05-23T12:12:36;25.40;1.00
14924;DHT22;7554;43.600;1.480;2023-05-23T12:15:05;25.60;1.00
14924;DHT22;7554;43.600;1.480;2023-05-23T12:17:32;25.10;1.00
14924;DHT22;7554;43.600;1.480;2023-05-23T12:19:59;25.00;1.00
14924;DHT22;7554;43.600;1.480;2023-05-23T12:22:28;25.10;1.00
14924;DHT22;7554;43.600;1.480;2023-05-23T12:24:56;25.20;1.00
14924;DHT22;7554;43.600;1.480;2023-05-23T12:27:27;25.20;1.00
14924;DHT22;7554;43.600;1.480;2023-05-23T12:30:06;25.40;1.00
14924;DHT22;7554;43.600;1.480;2023-05-23T12:32:34;25.20;1.00
14924;DHT22;7554;43.600;1.480;2023-05-23T12:35:03;25.20;1.00
14924;DHT22;7554;43.600;1.480;2023-05-23T12:37:32;25.20;1.00
14924;DHT22;7554;43.600;1.480;2023-05-23T12:40:09;25.40;1.00
14924;DHT22;7554;43.600;1.480;2023-05-23T12:42:45;25.60;1.00
14924;DHT22;7554;43.600;1.480;2023-05-23T12:45:13;25.60;1.00
14924;DHT22;7554;43.600;1.480;2023-05-23T12:47:41;25.50;1.00
14924;DHT22;7554;43.600;1.480;2023-05-23T12:50:09;25.40;1.00
14924;DHT22;7554;43.600;1.480;2023-05-23T12:52:39;25.40;1.00
14924;DHT22;7554;43.600;1.480;2023-05-23T12:55:07;25.30;1.00
14924;DHT22;7554;43.600;1.480;2023-05-23T12:57:35;25.30;1.00
14924;DHT22;7554;43.600;1.480;2023-05-23T13:00:03;25.40;1.00
14924;DHT22;7554;43.600;1.480;2023-05-23T13:02:31;25.50;1.00
14924;DHT22;7554;43.600;1.480;2023-05-23T13:04:58;25.60;1.00
14924;DHT22;7554;43.600;1.480;2023-05-23T13:07:26;25.40;1.00
14924;DHT22;7554;43.600;1.480;2023-05-23T13:09:55;25.20;1.00
14924;DHT22;7554;43.600;1.480;2023-05-23T13:12:23;25.10;1.00
14924;DHT22;7554;43.600;1.480;2023-05-23T13:14:50;25.00;1.00
14924;DHT22;7554;43.600;1.480;2023-05-23T13:17:17;25.10;1.00
14924;DHT22;7554;43.600;1.480;2023-05-23T13:19:45;24.90;1.00
14924;DHT22;7554;43.600;1.480;2023-05-23T13:22:13;25.10;1.00
14924;DHT22;7554;43.600;1.480;2023-05-23T13:24:40;25.40;1.00
14924;DHT22;7554;43.600;1.480;2023-05-23T13:27:09;25.70;1.00
14924;DHT22;7554;43.600;1.480;2023-05-23T13:29:37;25.60;1.00
14924;DHT22;7554;43.600;1.480;2023-05-23T13:32:05;25.50;1.00
14924;DHT22;7554;43.600;1.480;2023-05-23T13:34:32;25.30;1.00
14924;DHT22;7554;43.600;1.480;2023-05-23T13:37:02;25.30;1.00
14924;DHT22;7554;43.600;1.480;2023-05-23T13:39:29;25.20;1.00
14924;DHT22;7554;43.600;1.480;2023-05-23T13:41:57;25.00;1.00
14924;DHT22;7554;43.600;1.480;2023-05-23T13:44:25;24.90;1.00
14924;DHT22;7554;43.600;1.480;2023-05-23T13:46:53;24.90;1.00
14924;DHT22;7554;43.600;1.480;2023-05-23T13:49:21;24.80;1.00
14924;DHT22;7554;43.600;1.480;2023-05-23T13:51:48;24.70;1.00
14924;DHT22;7554;43.600;1.480;2023-05-23T13:54:16;25.00;1.00
14924;DHT22;7554;43.600;1.480;2023-05-23T13:56:43;25.20;1.00
14924;DHT22;7554;43.600;1.480;2023-05-23T13:59:11;25.30;1.00
14924;DHT22;7554;43.600;1.480;2023-05-23T14:01:39;25.50;1.00
14924;DHT22;7554;43.600;1.480;2023-05-23T14:04:07;25.30;1.00
14924;DHT22;7554;43.600;1.480;2023-05-23T14:06:34;25.60;1.00
14924;DHT22;7554;43.600;1.480;2023-05-23T14:09:01;25.50;1.00
14924;DHT22;7554;43.600;1.480;2023-05-23T14:11:29;25.60;1.00
14924;DHT22;7554;43.600;1.480;2023-05-23T14:13:56;26.00;1.00
14924;DHT22;7554;43.600;1.480;2023-05-23T14:16:24;25.90;1.00
14924;DHT22;7554;43.600;1.480;2023-05-23T14:18:52;26.00;1.00
14924;DHT22;7554;43.600;1.480;2023-05-23T14:21:20;25.90;1.00
14924;DHT22;7554;43.600;1.480;2023-05-23T14:23:48;25.70;1.00
14924;DHT22;7554;43.600;1.480;2023-05-23T14:26:15;25.80;1.00
14924;DHT22;7554;43.600;1.480;2023-05-23T14:28:43;26.40;1.00
14924;DHT22;7554;43.600;1.480;2023-05-23T14:31:10;26.70;1.00
14924;DHT22;7554;43.600;1.480;2023-05-23T14:33:37;26.70;1.00
14924;DHT22;7554;43.600;1.480;2023-05-23T14:36:06;27.00;1.00
14924;DHT22;7554;43.600;1.480;2023-05-23T14:38:34;27.20;1.00
14924;DHT22;7554;43.600;1.480;2023-05-23T14:41:02;27.10;1.00
14924;DHT22;7554;43.600;1.480;2023-05-23T14:43:29;27.10;1.00
14924;DHT22;7554;43.600;1.480;2023-05-23T14:45:56;26.30;1.00
14924;DHT22;7554;43.600;1.480;2023-05-23T14:48:23;26.30;1.00
14924;DHT22;7554;43.600;1.480;2023-05-23T14:50:51;25.90;1.00
14924;DHT22;7554;43.600;1.480;2023-05-23T14:53:19;26.00;1.00
14924;DHT22;7554;43.600;1.480;2023-05-23T14:55:48;25.80;1.00
14924;DHT22;7554;43.600;1.480;2023-05-23T14:58:16;26.40;1.00
14924;DHT22;7554;43.600;1.480;2023-05-23T15:00:43;26.70;1.00
14924;DHT22;7554;43.600;1.480;2023-05-23T15:03:12;26.40;1.00
14924;DHT22;7554;43.600;1.480;2023-05-23T15:05:40;26.00;1.00
14924;DHT22;7554;43.600;1.480;2023-05-23T15:08:07;25.90;1.00
14924;DHT22;7554;43.600;1.480;2023-05-23T15:10:37;25.90;1.00
14924;DHT22;7554;43.600;1.480;2023-05-23T15:13:04;25.80;1.00
14924;DHT22;7554;43.600;1.480;2023-05-23T15:15:31;25.90;1.00
14924;DHT22;7554;43.600;1.480;2023-05-23T15:18:02;25.70;1.00
14924;DHT22;7554;43.600;1.480;2023-05-23T15:20:32;25.50;1.00
14924;DHT22;7554;43.600;1.480;2023-05-23T15:23:00;25.60;1.00
14924;DHT22;7554;43.600;1.480;2023-05-23T15:25:27;25.60;1.00
14924;DHT22;7554;43.600;1.480;2023-05-23T15:27:56;25.70;1.00
14924;DHT22;7554;43.600;1.480;2023-05-23T15:30:24;25.60;1.00
14924;DHT22;7554;43.600;1.480;2023-05-23T15:32:52;25.60;1.00
14924;DHT22;7554;43.600;1.480;2023-05-23T15:35:20;25.40;1.00
14924;DHT22;7554;43.600;1.480;2023-05-23T15:37:47;25.70;1.00
14924;DHT22;7554;43.600;1.480;2023-05-23T15:40:14;25.80;1.00
14924;DHT22;7554;43.600;1.480;2023-05-23T15:42:42;26.20;1.00
14924;DHT22;7554;43.600;1.480;2023-05-23T15:45:11;25.90;1.00
14924;DHT22;7554;43.600;1.480;2023-05-23T15:47:38;25.90;1.00
14924;DHT22;7554;43.600;1.480;2023-05-23T15:50:07;25.80;1.00
14924;DHT22;7554;43.600;1.480;2023-05-23T15:52:34;26.00;1.00
14924;DHT22;7554;43.600;1.480;2023-05-23T15:55:01;26.00;1.00
14924;DHT22;7554;43.600;1.480;2023-05-23T15:57:30;26.00;1.00
14924;DHT22;7554;43.600;1.480;2023-05-23T15:59:58;25.50;1.00
14924;DHT22;7554;43.600;1.480;2023-05-23T16:02:27;25.30;1.00
14924;DHT22;7554;43.600;1.480;2023-05-23T16:04:54;25.30;1.00
14924;DHT22;7554;43.600;1.480;2023-05-23T16:07:22;25.50;1.00
14924;DHT22;7554;43.600;1.480;2023-05-23T16:09:49;25.40;1.00
14924;DHT22;7554;43.600;1.480;2023-05-23T16:12:17;25.30;1.00
14924;DHT22;7554;43.600;1.480;2023-05-23T16:14:44;25.10;1.00
14924;DHT22;7554;43.600;1.480;2023-05-23T16:17:11;24.90;1.00
14924;DHT22;7554;43.600;1.480;2023-05-23T16:19:40;24.60;1.00